sensor_id;sensor_type;location;lat;lon;timestamp;P1;durP1;ratioP1;P2;durP2;ratioP2
10489;SDS011;35569;48.402;10.670;2023-04-29T00:00:23;3.00;;;2.80;;
10489;SDS011;35569;48.402;10.670;2023-04-29T00:00:58;3.30;;;3.10;;
10489;SDS011;35569;48.402;10.670;2023-04-29T00:01:30;3.23;;;3.00;;
10489;SDS011;35569;48.402;10.670;2023-04-29T00:02:03;3.17;;;2.97;;
10489;SDS011;35569;48.402;10.670;2023-04-29T00:02:35;3.30;;;3.07;;
10489;SDS011;35569;48.402;10.670;2023-04-29T00:03:11;2.80;;;2.70;;
10489;SDS011;35569;48.402;10.670;2023-04-29T00:03:44;2.83;;;2.73;;
10489;SDS011;35569;48.402;10.670;2023-04-29T00:04:16;3.23;;;2.93;;
10489;SDS011;35569;48.402;10.670;2023-04-29T00:04:52;2.80;;;2.70;;
10489;SDS011;35569;48.402;10.670;2023-04-29T00:05:27;3.07;;;2.97;;
10489;SDS011;35569;48.402;10.670;2023-04-29T00:06:00;3.27;;;3.17;;
10489;SDS011;35569;48.402;10.670;2023-04-29T00:06:36;3.40;;;3.20;;
10489;SDS011;35569;48.402;10.670;2023-04-29T00:07:08;2.90;;;2.80;;
10489;SDS011;35569;48.402;10.670;2023-04-29T00:07:40;3.70;;;3.40;;
10489;SDS011;35569;48.402;10.670;2023-04-29T00:08:16;3.80;;;3.00;;
10489;SDS011;35569;48.402;10.670;2023-04-29T00:08:48;3.47;;;3.27;;
10489;SDS011;35569;48.402;10.670;2023-04-29T00:09:22;3.17;;;2.87;;
10489;SDS011;35569;48.402;10.670;2023-04-29T00:09:57;3.47;;;3.27;;
10489;SDS011;35569;48.402;10.670;2023-04-29T00:10:30;3.10;;;2.90;;
10489;SDS011;35569;48.402;10.670;2023-04-29T00:11:02;3.20;;;3.00;;
10489;SDS011;35569;48.402;10.670;2023-04-29T00:11:37;2.70;;;2.60;;
10489;SDS011;35569;48.402;10.670;2023-04-29T00:12:09;3.20;;;2.90;;
10489;SDS011;35569;48.402;10.670;2023-04-29T00:12:42;3.37;;;3.10;;
10489;SDS011;35569;48.402;10.670;2023-04-29T00:13:17;2.57;;;2.43;;
10489;SDS011;35569;48.402;10.670;2023-04-29T00:13:49;3.93;;;3.20;;
10489;SDS011;35569;48.402;10.670;2023-04-29T00:14:21;4.13;;;3.67;;
10489;SDS011;35569;48.402;10.670;2023-04-29T00:14:56;3.43;;;3.00;;
10489;SDS011;35569;48.402;10.670;2023-04-29T00:15:29;3.07;;;2.80;;
10489;SDS011;35569;48.402;10.670;2023-04-29T00:16:01;3.00;;;2.83;;
10489;SDS011;35569;48.402;10.670;2023-04-29T00:16:36;2.70;;;2.60;;
10489;SDS011;35569;48.402;10.670;2023-04-29T00:17:08;3.13;;;3.03;;
10489;SDS011;35569;48.402;10.670;2023-04-29T00:17:42;3.90;;;3.40;;
10489;SDS011;35569;48.402;10.670;2023-04-29T00:18:17;3.17;;;2.93;;
10489;SDS011;35569;48.402;10.670;2023-04-29T00:18:50;3.20;;;2.87;;
10489;SDS011;35569;48.402;10.670;2023-04-29T00:19:22;2.90;;;2.80;;
10489;SDS011;35569;48.402;10.670;2023-04-29T00:19:57;2.90;;;2.70;;
10489;SDS011;35569;48.402;10.670;2023-04-29T00:20:32;2.60;;;2.50;;
10489;SDS011;35569;48.402;10.670;2023-04-29T00:21:05;2.63;;;2.53;;
10489;SDS011;35569;48.402;10.670;2023-04-29T00:21:40;2.93;;;2.77;;
10489;SDS011;35569;48.402;10.670;2023-04-29T00:22:12;3.97;;;3.03;;
10489;SDS011;35569;48.402;10.670;2023-04-29T00:22:44;3.17;;;2.97;;
10489;SDS011;35569;48.402;10.670;2023-04-29T00:23:20;2.83;;;2.57;;
10489;SDS011;35569;48.402;10.670;2023-04-29T00:23:52;2.63;;;2.53;;
10489;SDS011;35569;48.402;10.670;2023-04-29T00:24:24;2.90;;;2.70;;
10489;SDS011;35569;48.402;10.670;2023-04-29T00:25:00;2.60;;;2.50;;
10489;SDS011;35569;48.402;10.670;2023-04-29T00:25:32;3.00;;;2.90;;
10489;SDS011;35569;48.402;10.670;2023-04-29T00:26:05;3.27;;;3.07;;
10489;SDS011;35569;48.402;10.670;2023-04-29T00:26:42;2.80;;;2.70;;
10489;SDS011;35569;48.402;10.670;2023-04-29T00:27:14;2.57;;;2.47;;
10489;SDS011;35569;48.402;10.670;2023-04-29T00:27:48;4.70;;;2.20;;
10489;SDS011;35569;48.402;10.670;2023-04-29T00:28:23;2.50;;;2.40;;
10489;SDS011;35569;48.402;10.670;2023-04-29T00:28:55;2.43;;;2.30;;
10489;SDS011;35569;48.402;10.670;2023-04-29T00:29:29;3.30;;;3.10;;
10489;SDS011;35569;48.402;10.670;2023-04-29T00:30:04;2.90;;;2.80;;
10489;SDS011;35569;48.402;10.670;2023-04-29T00:30:38;2.67;;;2.47;;
10489;SDS011;35569;48.402;10.670;2023-04-29T00:31:11;3.10;;;2.90;;
10489;SDS011;35569;48.402;10.670;2023-04-29T00:31:46;3.30;;;2.70;;
10489;SDS011;35569;48.402;10.670;2023-04-29T00:32:19;2.93;;;2.73;;
10489;SDS011;35569;48.402;10.670;2023-04-29T00:32:51;2.87;;;2.70;;
10489;SDS011;35569;48.402;10.670;2023-04-29T00:33:26;2.77;;;2.67;;
10489;SDS011;35569;48.402;10.670;2023-04-29T00:33:58;2.43;;;2.33;;
10489;SDS011;35569;48.402;10.670;2023-04-29T00:34:31;3.10;;;3.00;;
10489;SDS011;35569;48.402;10.670;2023-04-29T00:35:06;2.83;;;2.73;;
10489;SDS011;35569;48.402;10.670;2023-04-29T00:35:41;2.30;;;2.20;;
10489;SDS011;35569;48.402;10.670;2023-04-29T00:36:14;2.60;;;2.50;;
10489;SDS011;35569;48.402;10.670;2023-04-29T00:36:49;2.77;;;2.67;;
10489;SDS011;35569;48.402;10.670;2023-04-29T00:37:21;2.67;;;2.57;;
10489;SDS011;35569;48.402;10.670;2023-04-29T00:37:54;2.73;;;2.53;;
10489;SDS011;35569;48.402;10.670;2023-04-29T00:38:29;3.40;;;2.70;;
10489;SDS011;35569;48.402;10.670;2023-04-29T00:39:01;2.87;;;2.77;;
10489;SDS011;35569;48.402;10.670;2023-04-29T00:39:34;3.07;;;2.87;;
10489;SDS011;35569;48.402;10.670;2023-04-29T00:40:09;3.00;;;2.80;;
10489;SDS011;35569;48.402;10.670;2023-04-29T00:40:45;3.10;;;2.90;;
10489;SDS011;35569;48.402;10.670;2023-04-29T00:41:18;3.17;;;2.97;;
10489;SDS011;35569;48.402;10.670;2023-04-29T00:41:54;2.83;;;2.73;;
10489;SDS011;35569;48.402;10.670;2023-04-29T00:42:26;2.80;;;2.60;;
10489;SDS011;35569;48.402;10.670;2023-04-29T00:42:59;2.73;;;2.63;;
10489;SDS011;35569;48.402;10.670;2023-04-29T00:43:34;2.90;;;2.80;;
10489;SDS011;35569;48.402;10.670;2023-04-29T00:44:06;2.53;;;2.43;;
10489;SDS011;35569;48.402;10.670;2023-04-29T00:44:39;2.80;;;2.70;;
10489;SDS011;35569;48.402;10.670;2023-04-29T00:45:14;3.27;;;2.93;;
10489;SDS011;35569;48.402;10.670;2023-04-29T00:45:47;3.37;;;2.80;;
10489;SDS011;35569;48.402;10.670;2023-04-29T00:46:22;2.30;;;2.20;;
10489;SDS011;35569;48.402;10.670;2023-04-29T00:46:55;2.47;;;2.33;;
10489;SDS011;35569;48.402;10.670;2023-04-29T00:47:27;3.07;;;2.87;;
10489;SDS011;35569;48.402;10.670;2023-04-29T00:48:03;2.30;;;2.20;;
10489;SDS011;35569;48.402;10.670;2023-04-29T00:48:36;2.80;;;2.60;;
10489;SDS011;35569;48.402;10.670;2023-04-29T00:49:08;2.50;;;2.40;;
10489;SDS011;35569;48.402;10.670;2023-04-29T00:49:41;3.33;;;3.13;;
10489;SDS011;35569;48.402;10.670;2023-04-29T00:50:16;2.80;;;2.60;;
10489;SDS011;35569;48.402;10.670;2023-04-29T00:50:51;2.43;;;2.23;;
10489;SDS011;35569;48.402;10.670;2023-04-29T00:51:23;3.53;;;3.00;;
10489;SDS011;35569;48.402;10.670;2023-04-29T00:51:58;3.17;;;2.97;;
10489;SDS011;35569;48.402;10.670;2023-04-29T00:52:32;2.60;;;2.50;;
10489;SDS011;35569;48.402;10.670;2023-04-29T00:53:05;2.40;;;2.30;;
10489;SDS011;35569;48.402;10.670;2023-04-29T00:53:40;2.53;;;2.43;;
10489;SDS011;35569;48.402;10.670;2023-04-29T00:54:12;2.33;;;2.23;;
10489;SDS011;35569;48.402;10.670;2023-04-29T00:54:45;2.30;;;2.20;;
10489;SDS011;35569;48.402;10.670;2023-04-29T00:55:20;2.40;;;2.30;;
10489;SDS011;35569;48.402;10.670;2023-04-29T00:55:54;2.10;;;2.00;;
10489;SDS011;35569;48.402;10.670;2023-04-29T00:56:27;2.87;;;2.33;;
10489;SDS011;35569;48.402;10.670;2023-04-29T00:57:03;3.17;;;2.73;;
10489;SDS011;35569;48.402;10.670;2023-04-29T00:57:37;2.20;;;2.10;;
10489;SDS011;35569;48.402;10.670;2023-04-29T00:58:09;2.10;;;2.00;;
10489;SDS011;35569;48.402;10.670;2023-04-29T00:58:45;2.47;;;2.37;;
10489;SDS011;35569;48.402;10.670;2023-04-29T00:59:21;2.90;;;2.67;;
10489;SDS011;35569;48.402;10.670;2023-04-29T00:59:54;2.50;;;2.30;;
10489;SDS011;35569;48.402;10.670;2023-04-29T01:00:29;2.30;;;2.20;;
10489;SDS011;35569;48.402;10.670;2023-04-29T01:01:02;2.20;;;2.10;;
10489;SDS011;35569;48.402;10.670;2023-04-29T01:01:34;2.80;;;2.70;;
10489;SDS011;35569;48.402;10.670;2023-04-29T01:02:10;3.97;;;2.47;;
10489;SDS011;35569;48.402;10.670;2023-04-29T01:02:42;3.23;;;2.30;;
10489;SDS011;35569;48.402;10.670;2023-04-29T01:03:16;2.50;;;2.40;;
10489;SDS011;35569;48.402;10.670;2023-04-29T01:03:52;2.30;;;2.10;;
10489;SDS011;35569;48.402;10.670;2023-04-29T01:04:25;2.43;;;2.23;;
10489;SDS011;35569;48.402;10.670;2023-04-29T01:04:58;2.50;;;2.40;;
10489;SDS011;35569;48.402;10.670;2023-04-29T01:05:32;1.90;;;1.80;;
10489;SDS011;35569;48.402;10.670;2023-04-29T01:06:11;2.23;;;2.13;;
10489;SDS011;35569;48.402;10.670;2023-04-29T01:06:49;2.37;;;2.27;;
10489;SDS011;35569;48.402;10.670;2023-04-29T01:07:33;2.40;;;2.20;;
10489;SDS011;35569;48.402;10.670;2023-04-29T01:08:13;1.90;;;1.80;;
10489;SDS011;35569;48.402;10.670;2023-04-29T01:08:57;2.80;;;2.60;;
10489;SDS011;35569;48.402;10.670;2023-04-29T01:09:42;2.30;;;2.20;;
10489;SDS011;35569;48.402;10.670;2023-04-29T01:10:26;2.20;;;2.10;;
10489;SDS011;35569;48.402;10.670;2023-04-29T01:11:01;2.53;;;2.00;;
10489;SDS011;35569;48.402;10.670;2023-04-29T01:11:41;2.50;;;2.40;;
10489;SDS011;35569;48.402;10.670;2023-04-29T01:12:19;2.53;;;2.43;;
10489;SDS011;35569;48.402;10.670;2023-04-29T01:12:55;1.97;;;1.87;;
10489;SDS011;35569;48.402;10.670;2023-04-29T01:13:40;2.63;;;2.53;;
10489;SDS011;35569;48.402;10.670;2023-04-29T01:14:14;2.07;;;1.97;;
10489;SDS011;35569;48.402;10.670;2023-04-29T01:14:50;2.40;;;2.30;;
10489;SDS011;35569;48.402;10.670;2023-04-29T01:15:29;1.60;;;1.60;;
10489;SDS011;35569;48.402;10.670;2023-04-29T01:16:06;2.13;;;2.03;;
10489;SDS011;35569;48.402;10.670;2023-04-29T01:16:43;2.40;;;2.30;;
10489;SDS011;35569;48.402;10.670;2023-04-29T01:17:24;1.70;;;1.70;;
10489;SDS011;35569;48.402;10.670;2023-04-29T01:17:58;2.27;;;2.17;;
10489;SDS011;35569;48.402;10.670;2023-04-29T01:18:32;2.40;;;2.20;;
10489;SDS011;35569;48.402;10.670;2023-04-29T01:19:11;2.27;;;2.17;;
10489;SDS011;35569;48.402;10.670;2023-04-29T01:19:49;2.50;;;2.40;;
10489;SDS011;35569;48.402;10.670;2023-04-29T01:20:25;2.20;;;2.10;;
10489;SDS011;35569;48.402;10.670;2023-04-29T01:21:00;2.00;;;1.90;;
10489;SDS011;35569;48.402;10.670;2023-04-29T01:21:35;2.50;;;2.40;;
10489;SDS011;35569;48.402;10.670;2023-04-29T01:22:17;1.77;;;1.67;;
10489;SDS011;35569;48.402;10.670;2023-04-29T01:22:52;2.00;;;1.90;;
10489;SDS011;35569;48.402;10.670;2023-04-29T01:23:28;2.00;;;1.90;;
10489;SDS011;35569;48.402;10.670;2023-04-29T01:24:00;2.50;;;2.30;;
10489;SDS011;35569;48.402;10.670;2023-04-29T01:24:37;2.40;;;2.30;;
10489;SDS011;35569;48.402;10.670;2023-04-29T01:25:10;2.10;;;2.00;;
10489;SDS011;35569;48.402;10.670;2023-04-29T01:26:04;2.80;;;1.87;;
10489;SDS011;35569;48.402;10.670;2023-04-29T01:26:50;2.27;;;2.17;;
10489;SDS011;35569;48.402;10.670;2023-04-29T01:27:52;2.17;;;1.97;;
10489;SDS011;35569;48.402;10.670;2023-04-29T01:28:36;2.27;;;2.17;;
10489;SDS011;35569;48.402;10.670;2023-04-29T01:29:19;2.13;;;2.03;;
10489;SDS011;35569;48.402;10.670;2023-04-29T01:29:58;2.43;;;2.30;;
10489;SDS011;35569;48.402;10.670;2023-04-29T01:30:40;1.70;;;1.67;;
10489;SDS011;35569;48.402;10.670;2023-04-29T01:31:18;2.13;;;2.03;;
10489;SDS011;35569;48.402;10.670;2023-04-29T01:31:57;5.33;;;2.77;;
10489;SDS011;35569;48.402;10.670;2023-04-29T01:32:42;2.50;;;1.90;;
10489;SDS011;35569;48.402;10.670;2023-04-29T01:33:20;2.37;;;2.27;;
10489;SDS011;35569;48.402;10.670;2023-04-29T01:33:58;2.23;;;2.13;;
10489;SDS011;35569;48.402;10.670;2023-04-29T01:34:41;2.20;;;2.10;;
10489;SDS011;35569;48.402;10.670;2023-04-29T01:35:20;2.30;;;2.20;;
10489;SDS011;35569;48.402;10.670;2023-04-29T01:36:02;2.10;;;2.00;;
10489;SDS011;35569;48.402;10.670;2023-04-29T01:36:43;2.10;;;2.00;;
10489;SDS011;35569;48.402;10.670;2023-04-29T01:37:21;2.50;;;2.40;;
10489;SDS011;35569;48.402;10.670;2023-04-29T01:38:00;2.20;;;2.10;;
10489;SDS011;35569;48.402;10.670;2023-04-29T01:38:46;2.03;;;1.93;;
10489;SDS011;35569;48.402;10.670;2023-04-29T01:39:24;2.53;;;2.33;;
10489;SDS011;35569;48.402;10.670;2023-04-29T01:40:15;2.10;;;2.00;;
10489;SDS011;35569;48.402;10.670;2023-04-29T01:41:06;2.27;;;2.17;;
10489;SDS011;35569;48.402;10.670;2023-04-29T01:41:47;2.80;;;2.60;;
10489;SDS011;35569;48.402;10.670;2023-04-29T01:42:32;2.17;;;2.07;;
10489;SDS011;35569;48.402;10.670;2023-04-29T01:43:15;3.03;;;2.00;;
10489;SDS011;35569;48.402;10.670;2023-04-29T01:43:51;2.93;;;2.73;;
10489;SDS011;35569;48.402;10.670;2023-04-29T01:44:28;2.80;;;2.60;;
10489;SDS011;35569;48.402;10.670;2023-04-29T01:45:04;2.43;;;2.33;;
10489;SDS011;35569;48.402;10.670;2023-04-29T01:45:38;2.20;;;2.10;;
10489;SDS011;35569;48.402;10.670;2023-04-29T01:46:12;2.50;;;2.30;;
10489;SDS011;35569;48.402;10.670;2023-04-29T01:46:50;1.93;;;1.93;;
10489;SDS011;35569;48.402;10.670;2023-04-29T01:47:29;2.30;;;2.20;;
10489;SDS011;35569;48.402;10.670;2023-04-29T01:48:02;2.07;;;1.90;;
10489;SDS011;35569;48.402;10.670;2023-04-29T01:48:38;2.27;;;2.17;;
10489;SDS011;35569;48.402;10.670;2023-04-29T01:49:11;2.47;;;2.27;;
10489;SDS011;35569;48.402;10.670;2023-04-29T01:49:44;2.30;;;2.20;;
10489;SDS011;35569;48.402;10.670;2023-04-29T01:50:19;2.50;;;2.40;;
10489;SDS011;35569;48.402;10.670;2023-04-29T01:50:52;2.40;;;2.20;;
10489;SDS011;35569;48.402;10.670;2023-04-29T01:51:25;2.20;;;2.10;;
10489;SDS011;35569;48.402;10.670;2023-04-29T01:52:00;2.10;;;1.97;;
10489;SDS011;35569;48.402;10.670;2023-04-29T01:52:34;2.10;;;2.00;;
10489;SDS011;35569;48.402;10.670;2023-04-29T01:53:07;1.80;;;1.73;;
10489;SDS011;35569;48.402;10.670;2023-04-29T01:53:46;2.30;;;2.20;;
10489;SDS011;35569;48.402;10.670;2023-04-29T01:54:18;2.30;;;2.10;;
10489;SDS011;35569;48.402;10.670;2023-04-29T01:54:51;2.13;;;2.03;;
10489;SDS011;35569;48.402;10.670;2023-04-29T01:55:28;3.00;;;1.93;;
10489;SDS011;35569;48.402;10.670;2023-04-29T01:56:15;2.50;;;2.37;;
10489;SDS011;35569;48.402;10.670;2023-04-29T01:57:03;2.00;;;1.90;;
10489;SDS011;35569;48.402;10.670;2023-04-29T01:57:49;2.50;;;2.30;;
10489;SDS011;35569;48.402;10.670;2023-04-29T01:58:42;2.90;;;1.80;;
10489;SDS011;35569;48.402;10.670;2023-04-29T01:59:35;1.87;;;1.77;;
10489;SDS011;35569;48.402;10.670;2023-04-29T02:00:11;1.63;;;1.53;;
10489;SDS011;35569;48.402;10.670;2023-04-29T02:00:43;1.70;;;1.70;;
10489;SDS011;35569;48.402;10.670;2023-04-29T02:01:16;2.03;;;1.93;;
10489;SDS011;35569;48.402;10.670;2023-04-29T02:01:51;2.20;;;2.10;;
10489;SDS011;35569;48.402;10.670;2023-04-29T02:02:24;1.70;;;1.70;;
10489;SDS011;35569;48.402;10.670;2023-04-29T02:03:07;2.27;;;2.17;;
10489;SDS011;35569;48.402;10.670;2023-04-29T02:03:45;1.67;;;1.67;;
10489;SDS011;35569;48.402;10.670;2023-04-29T02:04:19;1.90;;;1.80;;
10489;SDS011;35569;48.402;10.670;2023-04-29T02:04:52;1.73;;;1.73;;
10489;SDS011;35569;48.402;10.670;2023-04-29T02:05:29;2.00;;;1.90;;
10489;SDS011;35569;48.402;10.670;2023-04-29T02:06:05;1.83;;;1.73;;
10489;SDS011;35569;48.402;10.670;2023-04-29T02:06:40;1.60;;;1.60;;
10489;SDS011;35569;48.402;10.670;2023-04-29T02:07:13;1.93;;;1.83;;
10489;SDS011;35569;48.402;10.670;2023-04-29T02:07:50;1.90;;;1.80;;
10489;SDS011;35569;48.402;10.670;2023-04-29T02:08:25;2.10;;;2.00;;
10489;SDS011;35569;48.402;10.670;2023-04-29T02:09:02;1.70;;;1.63;;
10489;SDS011;35569;48.402;10.670;2023-04-29T02:09:36;2.40;;;2.20;;
10489;SDS011;35569;48.402;10.670;2023-04-29T02:10:14;2.00;;;1.90;;
10489;SDS011;35569;48.402;10.670;2023-04-29T02:10:53;2.50;;;2.40;;
10489;SDS011;35569;48.402;10.670;2023-04-29T02:11:40;3.33;;;2.43;;
10489;SDS011;35569;48.402;10.670;2023-04-29T02:12:16;2.37;;;2.27;;
10489;SDS011;35569;48.402;10.670;2023-04-29T02:12:48;2.30;;;2.20;;
10489;SDS011;35569;48.402;10.670;2023-04-29T02:13:22;2.40;;;2.30;;
10489;SDS011;35569;48.402;10.670;2023-04-29T02:13:58;2.13;;;2.03;;
10489;SDS011;35569;48.402;10.670;2023-04-29T02:14:31;2.30;;;2.20;;
10489;SDS011;35569;48.402;10.670;2023-04-29T02:15:08;2.17;;;2.07;;
10489;SDS011;35569;48.402;10.670;2023-04-29T02:15:43;1.80;;;1.80;;
10489;SDS011;35569;48.402;10.670;2023-04-29T02:16:16;2.20;;;2.10;;
10489;SDS011;35569;48.402;10.670;2023-04-29T02:17:07;2.70;;;2.60;;
10489;SDS011;35569;48.402;10.670;2023-04-29T02:17:45;2.50;;;2.40;;
10489;SDS011;35569;48.402;10.670;2023-04-29T02:18:17;2.60;;;2.40;;
10489;SDS011;35569;48.402;10.670;2023-04-29T02:18:51;2.10;;;2.00;;
10489;SDS011;35569;48.402;10.670;2023-04-29T02:19:26;2.30;;;2.03;;
10489;SDS011;35569;48.402;10.670;2023-04-29T02:20:00;2.17;;;2.10;;
10489;SDS011;35569;48.402;10.670;2023-04-29T02:20:32;2.20;;;2.10;;
10489;SDS011;35569;48.402;10.670;2023-04-29T02:21:09;2.90;;;2.17;;
10489;SDS011;35569;48.402;10.670;2023-04-29T02:21:42;2.10;;;1.93;;
10489;SDS011;35569;48.402;10.670;2023-04-29T02:22:15;2.50;;;2.40;;
10489;SDS011;35569;48.402;10.670;2023-04-29T02:22:50;3.73;;;2.70;;
10489;SDS011;35569;48.402;10.670;2023-04-29T02:23:24;2.23;;;2.13;;
10489;SDS011;35569;48.402;10.670;2023-04-29T02:23:56;2.17;;;2.07;;
10489;SDS011;35569;48.402;10.670;2023-04-29T02:24:34;2.40;;;2.30;;
10489;SDS011;35569;48.402;10.670;2023-04-29T02:25:06;2.20;;;2.10;;
10489;SDS011;35569;48.402;10.670;2023-04-29T02:25:39;2.37;;;2.27;;
10489;SDS011;35569;48.402;10.670;2023-04-29T02:26:14;2.10;;;2.00;;
10489;SDS011;35569;48.402;10.670;2023-04-29T02:26:46;2.27;;;2.17;;
10489;SDS011;35569;48.402;10.670;2023-04-29T02:27:19;2.40;;;2.30;;
10489;SDS011;35569;48.402;10.670;2023-04-29T02:27:54;2.23;;;2.13;;
10489;SDS011;35569;48.402;10.670;2023-04-29T02:28:26;2.27;;;2.17;;
10489;SDS011;35569;48.402;10.670;2023-04-29T02:28:59;2.53;;;2.43;;
10489;SDS011;35569;48.402;10.670;2023-04-29T02:29:34;2.20;;;2.20;;
10489;SDS011;35569;48.402;10.670;2023-04-29T02:30:07;2.20;;;2.10;;
10489;SDS011;35569;48.402;10.670;2023-04-29T02:30:40;2.00;;;2.00;;
10489;SDS011;35569;48.402;10.670;2023-04-29T02:31:15;2.20;;;2.10;;
10489;SDS011;35569;48.402;10.670;2023-04-29T02:31:51;2.40;;;2.30;;
10489;SDS011;35569;48.402;10.670;2023-04-29T02:32:23;2.30;;;2.20;;
10489;SDS011;35569;48.402;10.670;2023-04-29T02:32:58;2.00;;;1.90;;
10489;SDS011;35569;48.402;10.670;2023-04-29T02:33:31;2.17;;;2.07;;
10489;SDS011;35569;48.402;10.670;2023-04-29T02:34:03;2.53;;;2.43;;
10489;SDS011;35569;48.402;10.670;2023-04-29T02:34:39;2.23;;;2.13;;
10489;SDS011;35569;48.402;10.670;2023-04-29T02:35:14;1.90;;;1.90;;
10489;SDS011;35569;48.402;10.670;2023-04-29T02:35:46;2.00;;;1.90;;
10489;SDS011;35569;48.402;10.670;2023-04-29T02:36:20;2.40;;;2.30;;
10489;SDS011;35569;48.402;10.670;2023-04-29T02:36:55;2.83;;;2.63;;
10489;SDS011;35569;48.402;10.670;2023-04-29T02:37:29;2.30;;;2.20;;
10489;SDS011;35569;48.402;10.670;2023-04-29T02:38:02;2.40;;;2.30;;
10489;SDS011;35569;48.402;10.670;2023-04-29T02:38:37;2.50;;;2.30;;
10489;SDS011;35569;48.402;10.670;2023-04-29T02:39:11;2.07;;;1.97;;
10489;SDS011;35569;48.402;10.670;2023-04-29T02:39:46;2.00;;;1.90;;
10489;SDS011;35569;48.402;10.670;2023-04-29T02:40:22;2.30;;;2.10;;
10489;SDS011;35569;48.402;10.670;2023-04-29T02:40:56;2.00;;;1.90;;
10489;SDS011;35569;48.402;10.670;2023-04-29T02:41:28;2.17;;;2.07;;
10489;SDS011;35569;48.402;10.670;2023-04-29T02:42:03;2.23;;;2.13;;
10489;SDS011;35569;48.402;10.670;2023-04-29T02:42:36;2.20;;;2.10;;
10489;SDS011;35569;48.402;10.670;2023-04-29T02:43:09;2.20;;;2.10;;
10489;SDS011;35569;48.402;10.670;2023-04-29T02:43:44;1.50;;;1.50;;
10489;SDS011;35569;48.402;10.670;2023-04-29T02:44:16;2.80;;;2.10;;
10489;SDS011;35569;48.402;10.670;2023-04-29T02:44:49;2.47;;;2.37;;
10489;SDS011;35569;48.402;10.670;2023-04-29T02:45:24;2.93;;;2.60;;
10489;SDS011;35569;48.402;10.670;2023-04-29T02:45:56;2.17;;;2.10;;
10489;SDS011;35569;48.402;10.670;2023-04-29T02:46:29;1.80;;;1.70;;
10489;SDS011;35569;48.402;10.670;2023-04-29T02:47:05;3.03;;;2.03;;
10489;SDS011;35569;48.402;10.670;2023-04-29T02:47:38;1.80;;;1.80;;
10489;SDS011;35569;48.402;10.670;2023-04-29T02:48:10;2.30;;;2.20;;
10489;SDS011;35569;48.402;10.670;2023-04-29T02:48:46;2.40;;;2.30;;
10489;SDS011;35569;48.402;10.670;2023-04-29T02:49:19;2.20;;;2.10;;
10489;SDS011;35569;48.402;10.670;2023-04-29T02:49:52;2.33;;;2.23;;
10489;SDS011;35569;48.402;10.670;2023-04-29T02:50:27;2.43;;;2.33;;
10489;SDS011;35569;48.402;10.670;2023-04-29T02:50:59;2.00;;;1.90;;
10489;SDS011;35569;48.402;10.670;2023-04-29T02:51:31;2.00;;;1.90;;
10489;SDS011;35569;48.402;10.670;2023-04-29T02:52:06;2.47;;;2.27;;
10489;SDS011;35569;48.402;10.670;2023-04-29T02:52:39;2.50;;;2.30;;
10489;SDS011;35569;48.402;10.670;2023-04-29T02:53:15;2.20;;;2.10;;
10489;SDS011;35569;48.402;10.670;2023-04-29T02:53:47;2.40;;;2.30;;
10489;SDS011;35569;48.402;10.670;2023-04-29T02:54:20;2.13;;;2.03;;
10489;SDS011;35569;48.402;10.670;2023-04-29T02:54:55;2.67;;;2.57;;
10489;SDS011;35569;48.402;10.670;2023-04-29T02:55:30;2.53;;;2.33;;
10489;SDS011;35569;48.402;10.670;2023-04-29T02:56:08;2.10;;;2.00;;
10489;SDS011;35569;48.402;10.670;2023-04-29T02:56:40;2.37;;;2.27;;
10489;SDS011;35569;48.402;10.670;2023-04-29T02:57:15;2.20;;;2.10;;
10489;SDS011;35569;48.402;10.670;2023-04-29T02:57:49;2.13;;;2.03;;
10489;SDS011;35569;48.402;10.670;2023-04-29T02:58:21;2.33;;;2.23;;
10489;SDS011;35569;48.402;10.670;2023-04-29T02:58:56;2.03;;;1.93;;
10489;SDS011;35569;48.402;10.670;2023-04-29T02:59:29;2.50;;;2.40;;
10489;SDS011;35569;48.402;10.670;2023-04-29T03:00:01;2.03;;;2.00;;
10489;SDS011;35569;48.402;10.670;2023-04-29T03:00:36;2.07;;;1.97;;
10489;SDS011;35569;48.402;10.670;2023-04-29T03:01:09;2.30;;;2.20;;
10489;SDS011;35569;48.402;10.670;2023-04-29T03:01:41;2.17;;;2.07;;
10489;SDS011;35569;48.402;10.670;2023-04-29T03:02:17;2.20;;;2.10;;
10489;SDS011;35569;48.402;10.670;2023-04-29T03:02:53;1.87;;;1.77;;
10489;SDS011;35569;48.402;10.670;2023-04-29T03:03:26;2.20;;;2.10;;
10489;SDS011;35569;48.402;10.670;2023-04-29T03:04:02;2.00;;;1.90;;
10489;SDS011;35569;48.402;10.670;2023-04-29T03:04:34;2.20;;;2.10;;
10489;SDS011;35569;48.402;10.670;2023-04-29T03:05:07;2.93;;;2.07;;
10489;SDS011;35569;48.402;10.670;2023-04-29T03:05:42;2.40;;;2.30;;
10489;SDS011;35569;48.402;10.670;2023-04-29T03:06:15;1.80;;;1.80;;
10489;SDS011;35569;48.402;10.670;2023-04-29T03:06:47;2.40;;;2.30;;
10489;SDS011;35569;48.402;10.670;2023-04-29T03:07:22;1.80;;;1.80;;
10489;SDS011;35569;48.402;10.670;2023-04-29T03:07:56;2.13;;;2.03;;
10489;SDS011;35569;48.402;10.670;2023-04-29T03:08:28;1.80;;;1.70;;
10489;SDS011;35569;48.402;10.670;2023-04-29T03:09:04;2.20;;;2.00;;
10489;SDS011;35569;48.402;10.670;2023-04-29T03:09:36;2.40;;;2.30;;
10489;SDS011;35569;48.402;10.670;2023-04-29T03:10:11;1.60;;;1.60;;
10489;SDS011;35569;48.402;10.670;2023-04-29T03:10:46;2.53;;;2.40;;
10489;SDS011;35569;48.402;10.670;2023-04-29T03:11:19;2.30;;;2.20;;
10489;SDS011;35569;48.402;10.670;2023-04-29T03:11:51;1.73;;;1.63;;
10489;SDS011;35569;48.402;10.670;2023-04-29T03:12:26;1.70;;;1.60;;
10489;SDS011;35569;48.402;10.670;2023-04-29T03:12:59;2.23;;;2.13;;
10489;SDS011;35569;48.402;10.670;2023-04-29T03:13:31;1.90;;;1.87;;
10489;SDS011;35569;48.402;10.670;2023-04-29T03:14:06;2.00;;;1.93;;
10489;SDS011;35569;48.402;10.670;2023-04-29T03:14:39;2.07;;;2.07;;
10489;SDS011;35569;48.402;10.670;2023-04-29T03:15:11;1.67;;;1.57;;
10489;SDS011;35569;48.402;10.670;2023-04-29T03:15:48;2.00;;;1.90;;
10489;SDS011;35569;48.402;10.670;2023-04-29T03:16:20;2.03;;;2.03;;
10489;SDS011;35569;48.402;10.670;2023-04-29T03:16:54;2.70;;;2.17;;
10489;SDS011;35569;48.402;10.670;2023-04-29T03:17:29;1.73;;;1.73;;
10489;SDS011;35569;48.402;10.670;2023-04-29T03:18:03;1.73;;;1.73;;
10489;SDS011;35569;48.402;10.670;2023-04-29T03:18:38;1.50;;;1.50;;
10489;SDS011;35569;48.402;10.670;2023-04-29T03:19:14;2.13;;;2.03;;
10489;SDS011;35569;48.402;10.670;2023-04-29T03:19:47;1.87;;;1.77;;
10489;SDS011;35569;48.402;10.670;2023-04-29T03:20:20;1.70;;;1.70;;
10489;SDS011;35569;48.402;10.670;2023-04-29T03:20:55;1.43;;;1.43;;
10489;SDS011;35569;48.402;10.670;2023-04-29T03:21:27;2.07;;;2.07;;
10489;SDS011;35569;48.402;10.670;2023-04-29T03:22:00;1.53;;;1.53;;
10489;SDS011;35569;48.402;10.670;2023-04-29T03:22:36;1.90;;;1.80;;
10489;SDS011;35569;48.402;10.670;2023-04-29T03:23:08;1.87;;;1.77;;
10489;SDS011;35569;48.402;10.670;2023-04-29T03:23:41;2.57;;;2.07;;
10489;SDS011;35569;48.402;10.670;2023-04-29T03:24:23;1.97;;;1.97;;
10489;SDS011;35569;48.402;10.670;2023-04-29T03:24:55;2.10;;;2.03;;
10489;SDS011;35569;48.402;10.670;2023-04-29T03:25:30;2.00;;;2.00;;
10489;SDS011;35569;48.402;10.670;2023-04-29T03:26:05;1.67;;;1.67;;
10489;SDS011;35569;48.402;10.670;2023-04-29T03:26:38;1.87;;;1.77;;
10489;SDS011;35569;48.402;10.670;2023-04-29T03:27:11;2.20;;;2.10;;
10489;SDS011;35569;48.402;10.670;2023-04-29T03:27:46;1.90;;;1.80;;
10489;SDS011;35569;48.402;10.670;2023-04-29T03:28:19;2.30;;;2.20;;
10489;SDS011;35569;48.402;10.670;2023-04-29T03:28:52;1.70;;;1.70;;
10489;SDS011;35569;48.402;10.670;2023-04-29T03:29:27;2.20;;;2.00;;